createdAt,value
2018-11-29T00:01:35.201Z,3.11
2018-11-29T00:06:37.626Z,3.09
2018-11-29T00:11:40.279Z,2.90
2018-11-29T00:16:43.158Z,2.96
2018-11-29T00:21:45.585Z,2.91
2018-11-29T00:26:48.036Z,2.98
2018-11-29T00:31:50.581Z,3.02
2018-11-29T00:36:52.992Z,3.06
2018-11-29T00:41:55.523Z,3.02
2018-11-29T00:46:57.959Z,3.10
2018-11-29T00:52:00.386Z,3.07
2018-11-29T00:57:02.786Z,3.04
2018-11-29T01:02:05.539Z,3.09
2018-11-29T01:07:07.923Z,3.02
2018-11-29T01:12:10.561Z,3.07
2018-11-29T01:17:12.924Z,3.09
2018-11-29T01:22:15.374Z,3.05
2018-11-29T01:27:18.754Z,3.01
2018-11-29T01:32:21.268Z,2.99
2018-11-29T01:37:24.111Z,3.05
2018-11-29T01:42:26.578Z,3.06
2018-11-29T01:47:29.063Z,3.08
2018-11-29T01:52:31.515Z,3.03
2018-11-29T01:57:33.937Z,3.02
2018-11-29T02:02:36.462Z,3.04
2018-11-29T02:07:38.880Z,3.02
2018-11-29T02:12:41.445Z,3.02
2018-11-29T02:17:44.015Z,3.02
2018-11-29T02:22:46.802Z,3.01
2018-11-29T02:27:49.299Z,2.97
2018-11-29T02:32:51.970Z,3.05
2018-11-29T02:37:54.480Z,3.02
2018-11-29T02:48:41.415Z,3.08
2018-11-29T02:53:53.285Z,3.11
2018-11-29T02:58:55.729Z,3.03
2018-11-29T03:03:58.154Z,3.17
2018-11-29T03:14:13.475Z,3.13
2018-11-29T03:19:16.001Z,3.16
2018-11-29T03:24:18.456Z,3.00
2018-11-29T03:29:20.870Z,3.14
2018-11-29T03:34:23.623Z,3.10
2018-11-29T03:39:25.980Z,3.14
2018-11-29T03:44:28.423Z,3.11
2018-11-29T03:49:30.968Z,3.05
2018-11-29T03:54:34.074Z,3.07
2018-11-29T03:59:36.458Z,3.15
2018-11-29T04:04:38.926Z,3.15
2018-11-29T04:09:41.475Z,3.10
2018-11-29T04:14:43.816Z,3.17
2018-11-29T04:19:46.402Z,3.08
2018-11-29T04:24:48.742Z,3.15
2018-11-29T04:29:51.244Z,3.13
2018-11-29T04:34:54.027Z,3.18
2018-11-29T04:39:56.478Z,3.17
2018-11-29T04:44:58.988Z,3.18
2018-11-29T04:50:01.429Z,3.15
2018-11-29T04:55:04.147Z,3.25
2018-11-29T05:00:12.849Z,3.22
2018-11-29T05:05:15.258Z,3.22
2018-11-29T05:10:17.960Z,3.26
2018-11-29T05:15:20.341Z,3.25
2018-11-29T05:20:22.975Z,3.25
2018-11-29T05:25:25.423Z,3.29
2018-11-29T05:30:27.896Z,3.35
2018-11-29T05:35:30.275Z,3.21
2018-11-29T05:40:32.736Z,3.28
2018-11-29T05:45:35.231Z,3.31
2018-11-29T05:50:37.749Z,3.22
2018-11-29T05:55:40.156Z,3.18
2018-11-29T06:00:42.733Z,3.15
2018-11-29T06:10:56.870Z,3.14
2018-11-29T06:15:59.263Z,3.26
2018-11-29T06:21:01.758Z,3.20
2018-11-29T06:26:04.303Z,3.24
2018-11-29T06:31:06.994Z,3.20
2018-11-29T06:36:09.638Z,3.21
2018-11-29T06:41:12.229Z,3.14
2018-11-29T06:46:14.783Z,3.26
2018-11-29T06:51:17.226Z,3.24
2018-11-29T06:56:19.957Z,3.19
2018-11-29T07:01:22.909Z,3.27
2018-11-29T07:06:25.295Z,3.20
2018-11-29T07:11:28.010Z,3.27
2018-11-29T07:16:30.587Z,3.17
2018-11-29T07:21:54.512Z,3.16
2018-11-29T07:26:56.916Z,3.15
2018-11-29T07:31:59.435Z,3.15
2018-11-29T07:37:01.906Z,3.14
2018-11-29T07:42:04.620Z,3.13
2018-11-29T07:47:07.087Z,3.16
2018-11-29T07:52:09.457Z,3.50
2018-11-29T07:57:11.818Z,3.41
2018-11-29T08:02:14.296Z,3.37
2018-11-29T08:07:16.764Z,3.44
2018-11-29T08:12:34.670Z,3.45
2018-11-29T08:17:37.074Z,3.40
2018-11-29T08:22:59.449Z,3.40
2018-11-29T08:28:01.896Z,3.41
2018-11-29T08:38:31.966Z,3.55
2018-11-29T08:43:46.441Z,3.45
2018-11-29T08:48:48.809Z,3.37
2018-11-29T08:53:51.562Z,3.32
2018-11-29T08:58:53.960Z,3.35
2018-11-29T09:03:56.675Z,3.38
2018-11-29T09:08:59.100Z,3.42
2018-11-29T09:14:01.530Z,3.53
2018-11-29T09:19:03.974Z,3.57
2018-11-29T09:24:06.410Z,3.63
2018-11-29T09:29:09.221Z,3.81
2018-11-29T09:34:11.623Z,3.94
2018-11-29T09:39:14.232Z,3.84
2018-11-29T09:44:16.763Z,4.01
2018-11-29T09:49:19.288Z,4.21
2018-11-29T09:54:21.658Z,4.30
2018-11-29T09:59:24.373Z,4.37
2018-11-29T10:04:26.794Z,4.44
2018-11-29T10:09:29.260Z,4.69
2018-11-29T10:14:31.666Z,4.67
2018-11-29T10:19:34.068Z,4.58
2018-11-29T10:24:36.514Z,4.61
2018-11-29T10:29:38.986Z,4.59
2018-11-29T10:34:41.485Z,4.53
2018-11-29T10:39:43.849Z,4.55
2018-11-29T10:44:46.394Z,4.51
2018-11-29T10:49:49.102Z,4.56
2018-11-29T10:54:51.534Z,4.52
2018-11-29T10:59:54.026Z,4.61
2018-11-29T11:04:56.582Z,4.61
2018-11-29T11:09:59.001Z,4.52
2018-11-29T11:15:01.416Z,4.59
2018-11-29T11:20:04.381Z,4.68
2018-11-29T11:25:08.426Z,4.66
2018-11-29T11:30:12.395Z,4.67
2018-11-29T11:35:14.887Z,4.73
2018-11-29T11:40:17.336Z,4.70
2018-11-29T11:45:20.264Z,4.79
2018-11-29T11:50:23.638Z,4.86
2018-11-29T11:55:29.950Z,4.81
2018-11-29T12:00:29.573Z,4.88
2018-11-29T12:05:32.083Z,4.90
2018-11-29T12:10:34.683Z,4.96
2018-11-29T12:15:37.681Z,4.98
2018-11-29T12:20:40.085Z,4.97
2018-11-29T12:25:42.555Z,5.06
2018-11-29T12:30:46.671Z,5.15
2018-11-29T12:35:49.071Z,5.08
2018-11-29T12:40:51.533Z,5.11
2018-11-29T12:45:53.970Z,5.08
2018-11-29T12:50:56.523Z,5.09
2018-11-29T12:55:58.972Z,5.08
2018-11-29T13:01:01.416Z,5.07
2018-11-29T13:06:03.914Z,5.08
2018-11-29T13:11:10.687Z,5.11
2018-11-29T13:16:08.899Z,5.15
2018-11-29T13:21:11.450Z,5.14
2018-11-29T13:26:13.957Z,5.17
2018-11-29T13:31:16.481Z,5.16
2018-11-29T13:36:18.912Z,5.13
2018-11-29T13:41:21.428Z,5.11
2018-11-29T13:46:23.829Z,5.12
2018-11-29T13:51:26.284Z,5.11
2018-11-29T13:56:28.737Z,5.11
2018-11-29T14:01:31.195Z,5.08
2018-11-29T14:06:40.246Z,5.09
2018-11-29T14:11:42.886Z,5.12
2018-11-29T14:16:45.290Z,5.12
2018-11-29T14:21:51.260Z,5.11
2018-11-29T14:26:50.735Z,5.08
2018-11-29T14:31:53.209Z,5.10
2018-11-29T14:36:55.633Z,5.06
2018-11-29T14:41:58.045Z,5.06
2018-11-29T14:47:00.511Z,5.07
2018-11-29T14:52:03.011Z,5.11
2018-11-29T14:57:05.558Z,5.10
2018-11-29T15:02:07.933Z,5.12
2018-11-29T15:07:10.490Z,5.17
2018-11-29T15:12:12.933Z,5.14
2018-11-29T15:17:15.443Z,5.14
2018-11-29T15:22:17.868Z,5.16
2018-11-29T15:27:20.340Z,5.17
2018-11-29T15:32:22.954Z,5.02
2018-11-29T15:37:25.405Z,5.04
2018-11-29T15:42:27.874Z,5.07
2018-11-29T15:47:30.424Z,5.03
2018-11-29T15:52:32.802Z,5.05
2018-11-29T15:57:35.517Z,5.04
2018-11-29T16:02:38.147Z,5.04
2018-11-29T16:07:40.867Z,5.06
2018-11-29T16:12:43.357Z,5.06
2018-11-29T16:17:53.154Z,5.01
2018-11-29T16:22:55.886Z,4.99
2018-11-29T16:27:58.320Z,4.98
2018-11-29T16:33:03.361Z,4.99
2018-11-29T16:38:06.290Z,5.01
2018-11-29T16:43:08.687Z,5.00
2018-11-29T16:48:11.183Z,5.03
2018-11-29T16:53:13.696Z,5.00
2018-11-29T16:58:17.969Z,5.00
2018-11-29T17:03:20.470Z,5.04
2018-11-29T17:08:22.875Z,5.07
2018-11-29T17:13:25.573Z,5.06
2018-11-29T17:18:27.987Z,5.11
2018-11-29T17:23:30.971Z,5.02
2018-11-29T17:28:33.446Z,4.96
2018-11-29T17:33:35.922Z,5.18
2018-11-29T17:38:38.450Z,5.02
2018-11-29T17:43:40.952Z,5.07
2018-11-29T17:48:43.570Z,5.11
2018-11-29T17:53:46.149Z,5.02
2018-11-29T17:58:48.567Z,5.08
2018-11-29T18:03:51.091Z,5.05
2018-11-29T18:08:53.569Z,5.03
2018-11-29T18:13:56.101Z,5.00
2018-11-29T18:18:58.795Z,5.00
2018-11-29T18:24:01.272Z,4.89
2018-11-29T18:29:04.373Z,4.90
2018-11-29T18:34:06.789Z,4.84
2018-11-29T18:39:09.401Z,4.80
2018-11-29T18:44:11.869Z,4.70
2018-11-29T18:49:14.322Z,4.65
2018-11-29T18:54:16.875Z,4.62
2018-11-29T18:59:19.427Z,4.54
2018-11-29T19:04:21.893Z,4.65
2018-11-29T19:09:24.327Z,4.62
2018-11-29T19:14:26.798Z,4.56
2018-11-29T19:19:29.348Z,4.54
2018-11-29T19:24:31.962Z,4.47
2018-11-29T19:29:34.424Z,4.52
2018-11-29T19:34:36.904Z,4.56
2018-11-29T19:39:39.394Z,4.57
2018-11-29T19:44:41.934Z,4.60
2018-11-29T19:49:44.374Z,4.57
2018-11-29T19:54:46.791Z,4.63
2018-11-29T19:59:49.268Z,4.52
2018-11-29T20:04:52.291Z,4.56
2018-11-29T20:09:54.767Z,4.54
2018-11-29T20:14:57.650Z,4.55
2018-11-29T20:20:00.357Z,4.44
2018-11-29T20:25:02.868Z,4.51
2018-11-29T20:30:08.882Z,4.40
2018-11-29T20:35:12.281Z,4.49
2018-11-29T20:40:25.434Z,4.41
2018-11-29T20:45:29.389Z,4.34
2018-11-29T20:50:32.384Z,4.37
2018-11-29T20:55:36.316Z,4.35
2018-11-29T21:00:45.754Z,4.35
2018-11-29T21:05:54.420Z,4.27
2018-11-29T21:10:56.853Z,4.32
2018-11-29T21:15:59.641Z,4.29
2018-11-29T21:21:02.508Z,4.21
2018-11-29T21:26:05.343Z,4.23
2018-11-29T21:31:09.927Z,4.12
2018-11-29T21:41:43.159Z,4.07
2018-11-29T21:52:01.952Z,3.95
2018-11-29T21:57:04.816Z,3.94
2018-11-29T22:02:07.197Z,3.96
2018-11-29T22:07:09.738Z,3.99
2018-11-29T22:12:12.415Z,3.97
2018-11-29T22:17:14.837Z,3.92
2018-11-29T22:22:17.231Z,4.00
2018-11-29T22:27:19.653Z,4.04
2018-11-29T22:32:22.324Z,4.03
2018-11-29T22:37:24.707Z,3.99
2018-11-29T22:42:27.726Z,3.99
2018-11-29T22:47:30.231Z,3.95
2018-11-29T22:52:32.710Z,4.00
2018-11-29T22:57:35.171Z,4.06
2018-11-29T23:02:38.283Z,4.00
2018-11-29T23:07:40.814Z,3.98
2018-11-29T23:12:43.375Z,4.10
2018-11-29T23:17:45.780Z,4.00
2018-11-29T23:22:48.210Z,3.98
2018-11-29T23:27:50.943Z,3.92
2018-11-29T23:32:53.451Z,3.86
2018-11-29T23:37:55.923Z,3.86
2018-11-29T23:42:58.417Z,3.80
2018-11-29T23:48:00.938Z,3.78
2018-11-29T23:53:03.641Z,3.69
2018-11-29T23:58:06.166Z,3.72
